Time;durP1;ratioP1;P1;durP2;ratioP2;P2;SDS_P1;SDS_P2;PMS_P1;PMS_P2;Temp;Humidity;BMP_temperature;BMP_pressure;BME280_temperature;BME280_humidity;BME280_pressure;Samples;Min_cycle;Max_cycle;Signal;HPM_P1;HPM_P2
2022/04/01 00:01:54;;;;;;;8.05;5.22;;;;;;;-0.34;92.57;100187.41;5034330;28;20060;-84
2022/04/01 00:04:20;;;;;;;7.00;5.22;;;;;;;-0.37;93.03;100192.03;5045747;28;20033;-82
2022/04/01 00:06:45;;;;;;;5.55;4.03;;;;;;;-0.39;92.86;100199.22;5045918;28;20108;-82
2022/04/01 00:09:10;;;;;;;7.55;4.28;;;;;;;-0.36;92.59;100199.97;5029204;28;20129;-82
2022/04/01 00:11:36;;;;;;;7.30;4.97;;;;;;;-0.42;92.46;100207.31;5030331;28;20061;-82
2022/04/01 00:14:02;;;;;;;5.25;3.97;;;;;;;-0.42;92.71;100205.56;5045696;28;20036;-83
2022/04/01 00:16:27;;;;;;;5.78;3.83;;;;;;;-0.39;92.94;100201.88;5044181;28;20605;-84
2022/04/01 00:18:52;;;;;;;8.00;4.82;;;;;;;-0.42;92.72;100223.34;5029032;28;20435;-88
2022/04/01 00:21:18;;;;;;;6.70;4.10;;;;;;;-0.39;92.48;100212.56;5045644;28;20514;-82
2022/04/01 00:23:43;;;;;;;6.47;4.75;;;;;;;-0.46;93.33;100211.94;5046298;28;20396;-82
2022/04/01 00:26:09;;;;;;;5.85;4.18;;;;;;;-0.47;93.24;100223.53;5029974;28;20175;-82
2022/04/01 00:28:34;;;;;;;6.20;4.03;;;;;;;-0.49;92.94;100212.03;5027080;28;20044;-84
2022/04/01 00:31:00;;;;;;;6.93;4.28;;;;;;;-0.49;93.22;100214.72;5016167;28;20436;-82
2022/04/01 00:33:26;;;;;;;7.38;4.25;;;;;;;-0.43;92.78;100214.47;5045652;28;20033;-82
2022/04/01 00:35:52;;;;;;;7.35;5.00;;;;;;;-0.50;93.42;100217.44;5028098;28;20037;-82
2022/04/01 00:38:17;;;;;;;4.68;3.20;;;;;;;-0.46;92.47;100217.28;5046391;28;20049;-88
2022/04/01 00:40:43;;;;;;;7.32;4.78;;;;;;;-0.50;93.22;100217.44;5028520;28;20021;-83
2022/04/01 00:43:08;;;;;;;6.60;4.30;;;;;;;-0.55;93.65;100220.28;5046539;28;20036;-83
2022/04/01 00:45:34;;;;;;;6.22;4.22;;;;;;;-0.50;93.49;100218.31;5044828;28;20040;-83
2022/04/01 00:48:02;;;;;;;6.00;4.15;;;;;;;-0.54;93.62;100222.91;5029400;28;20087;-87
2022/04/01 00:50:34;;;;;;;4.25;3.72;;;;;;;-0.59;94.00;100222.19;5027062;28;20036;-83
2022/04/01 00:53:00;;;;;;;6.75;4.15;;;;;;;-0.57;93.84;100228.34;5049901;28;20068;-82
2022/04/01 00:55:27;;;;;;;7.18;4.80;;;;;;;-0.61;94.32;100236.53;5049918;28;20044;-84
2022/04/01 00:57:53;;;;;;;6.32;4.00;;;;;;;-0.62;94.44;100232.97;5033330;28;20037;-87
2022/04/01 01:00:19;;;;;;;5.80;3.78;;;;;;;-0.60;94.29;100231.16;5047333;28;20028;-83
2022/04/01 01:02:45;;;;;;;5.63;4.45;;;;;;;-0.60;94.03;100232.94;5049191;28;20116;-83
2022/04/01 01:05:11;;;;;;;4.78;3.97;;;;;;;-0.64;94.77;100234.00;5027894;28;20129;-85
2022/04/01 01:07:40;;;;;;;5.35;4.18;;;;;;;-0.62;94.31;100237.47;5044390;28;20541;-88
2022/04/01 01:10:06;;;;;;;4.32;3.25;;;;;;;-0.62;94.43;100235.66;5038786;28;20065;-88
2022/04/01 01:12:31;;;;;;;5.20;3.88;;;;;;;-0.61;94.02;100248.06;5029538;28;20519;-83
2022/04/01 01:15:07;;;;;;;3.85;3.17;;;;;;;-0.56;93.15;100240.78;5023151;28;20033;-83
2022/04/01 01:17:33;;;;;;;3.85;3.00;;;;;;;-0.62;94.15;100235.66;5044596;28;20468;-84
2022/04/01 01:19:59;;;;;;;4.78;2.75;;;;;;;-0.58;93.24;100245.31;5028808;28;20150;-83
2022/04/01 01:22:24;;;;;;;6.72;4.10;;;;;;;-0.63;93.97;100236.59;5041313;28;20045;-82
2022/04/01 01:24:50;;;;;;;5.07;3.50;;;;;;;-0.64;94.29;100239.31;5049248;28;20063;-83
2022/04/01 01:27:15;;;;;;;6.97;4.55;;;;;;;-0.69;94.58;100233.28;5032712;28;20033;-84
2022/04/01 01:29:42;;;;;;;4.88;3.50;;;;;;;-0.68;94.07;100251.03;5031354;28;20037;-83
2022/04/01 01:32:10;;;;;;;8.13;4.30;;;;;;;-0.69;94.21;100233.28;5047621;28;20483;-82
2022/04/01 01:34:37;;;;;;;5.85;3.97;;;;;;;-0.64;94.30;100252.69;5032132;28;20090;-85
2022/04/01 01:37:02;;;;;;;4.25;3.20;;;;;;;-0.63;93.93;100255.28;5048600;28;20037;-84
2022/04/01 01:39:29;;;;;;;7.70;5.10;;;;;;;-0.64;94.25;100252.69;5049074;28;20013;-84
2022/04/01 01:41:55;;;;;;;4.78;4.05;;;;;;;-0.62;94.09;100250.81;5047748;28;20040;-83
2022/04/01 01:44:22;;;;;;;7.97;4.35;;;;;;;-0.61;93.56;100245.41;5044374;28;20046;-84
2022/04/01 01:46:50;;;;;;;5.40;3.17;;;;;;;-0.60;93.86;100248.97;5031546;28;20029;-85
2022/04/01 01:49:15;;;;;;;7.25;4.63;;;;;;;-0.66;93.98;100241.16;5039086;28;20030;-83
2022/04/01 01:54:45;;;;;;;8.30;4.22;;;;;;;-0.62;93.81;100264.16;5039056;28;20390;-84
2022/04/01 01:57:16;;;;;;;5.82;3.88;;;;;;;-0.63;94.16;100267.78;5026247;28;20036;-84
2022/04/01 01:59:43;;;;;;;5.78;4.25;;;;;;;-0.64;94.41;100252.69;5028032;28;20034;-87
2022/04/01 02:02:10;;;;;;;7.25;4.38;;;;;;;-0.59;93.93;100254.25;5047820;28;20116;-84
2022/04/01 02:04:38;;;;;;;12.52;5.55;;;;;;;-0.65;94.42;100264.31;5031136;28;20037;-82
2022/04/01 02:07:04;;;;;;;6.75;4.05;;;;;;;-0.62;93.81;100256.16;5021900;28;20029;-87
2022/04/01 02:09:30;;;;;;;7.10;3.85;;;;;;;-0.68;94.20;100248.38;5029542;28;20060;-82
2022/04/01 02:11:55;;;;;;;5.07;3.53;;;;;;;-0.62;93.97;100265.03;5047274;28;20488;-83
2022/04/01 02:14:21;;;;;;;7.60;4.95;;;;;;;-0.64;94.22;100261.56;5028620;28;20040;-83
2022/04/01 02:16:47;;;;;;;5.05;3.63;;;;;;;-0.62;93.65;100281.06;5046692;28;20457;-83
2022/04/01 02:19:20;;;;;;;5.60;4.43;;;;;;;-0.64;93.83;100271.38;5047656;28;20127;-83
2022/04/01 02:21:50;;;;;;;7.80;4.82;;;;;;;-0.64;94.08;100271.38;5034857;28;20033;-88
2022/04/01 02:24:17;;;;;;;9.85;5.13;;;;;;;-0.64;94.22;100288.28;5048105;28;20125;-84
2022/04/01 02:26:45;;;;;;;3.75;2.78;;;;;;;-0.55;93.14;100289.75;5030369;28;20021;-83
2022/04/01 02:29:11;;;;;;;6.65;4.32;;;;;;;-0.62;93.44;100270.38;5042989;28;20025;-83
2022/04/01 02:31:55;;;;;;;5.07;3.20;;;;;;;-0.59;93.46;100277.44;5034311;28;20048;-85
2022/04/01 02:34:40;;;;;;;6.38;3.53;;;;;;;-0.58;93.03;100288.03;5047440;28;20411;-87
2022/04/01 02:37:06;;;;;;;5.47;4.22;;;;;;;-0.59;93.25;100280.97;5031089;28;20120;-84
2022/04/01 02:39:32;;;;;;;5.18;3.25;;;;;;;-0.55;93.14;100293.28;5048000;28;20119;-89
2022/04/01 02:41:57;;;;;;;9.35;4.80;;;;;;;-0.56;93.69;100293.31;5030517;28;20079;-88
2022/04/01 02:44:23;;;;;;;7.22;4.45;;;;;;;-0.58;93.66;100297.88;5029893;28;20500;-84
2022/04/01 02:46:48;;;;;;;5.50;3.90;;;;;;;-0.57;92.83;100299.59;5029424;28;20488;-86
2022/04/01 02:49:16;;;;;;;6.18;4.88;;;;;;;-0.62;94.05;100291.75;5030580;28;20029;-85
2022/04/01 02:51:57;;;;;;;5.95;4.43;;;;;;;-0.61;93.57;100305.97;5046600;28;20057;-84
2022/04/01 02:54:22;;;;;;;7.15;3.83;;;;;;;-0.63;93.60;100292.69;5031347;28;20033;-84
2022/04/01 02:56:50;;;;;;;6.65;5.32;;;;;;;-0.56;93.32;100309.34;5044949;28;20029;-82
2022/04/01 02:59:15;;;;;;;7.57;5.25;;;;;;;-0.63;93.72;100302.50;5026673;28;20465;-88
2022/04/01 03:01:41;;;;;;;6.22;4.05;;;;;;;-0.59;93.34;100315.69;5023855;28;20404;-88
2022/04/01 03:04:11;;;;;;;7.15;5.38;;;;;;;-0.59;93.63;100318.38;5046952;28;20033;-86
2022/04/01 03:06:47;;;;;;;8.82;5.10;;;;;;;-0.61;93.57;100320.19;5045420;28;20036;-83
2022/04/01 03:09:13;;;;;;;5.97;4.15;;;;;;;-0.52;92.57;100319.88;5030350;28;20048;-83
2022/04/01 03:11:43;;;;;;;8.85;5.80;;;;;;;-0.54;92.76;100340.44;5030515;28;20341;-88
2022/04/01 03:14:23;;;;;;;7.03;5.00;;;;;;;-0.55;92.86;100327.16;5044960;28;20037;-83
2022/04/01 03:17:08;;;;;;;6.13;4.50;;;;;;;-0.54;92.51;100344.91;5046340;28;20206;-88
2022/04/01 03:19:35;;;;;;;8.98;5.70;;;;;;;-0.58;93.11;100333.47;5046871;28;20021;-82
2022/04/01 03:22:00;;;;;;;7.97;5.53;;;;;;;-0.56;92.99;100323.59;5041085;28;20506;-81
2022/04/01 03:24:26;;;;;;;10.65;6.55;;;;;;;-0.61;93.70;100330.88;5030361;28;20116;-82
2022/04/01 03:26:52;;;;;;;11.35;6.30;;;;;;;-0.60;93.50;100339.78;5030558;28;20039;-83
2022/04/01 03:29:18;;;;;;;8.02;5.38;;;;;;;-0.54;92.86;100343.13;5026198;28;20029;-81
2022/04/01 03:31:45;;;;;;;8.82;5.80;;;;;;;-0.59;93.31;100357.56;5017640;28;20039;-88
2022/04/01 03:34:11;;;;;;;8.40;4.78;;;;;;;-0.61;93.63;100359.41;5025688;28;20026;-83
2022/04/01 03:36:36;;;;;;;8.05;5.65;;;;;;;-0.68;93.79;100353.41;5035573;28;20154;-83
2022/04/01 03:39:04;;;;;;;5.10;3.72;;;;;;;-0.62;93.14;100347.84;5030544;28;20479;-82
2022/04/01 03:41:49;;;;;;;8.27;5.07;;;;;;;-0.68;93.69;100357.88;5043137;28;20103;-84
2022/04/01 03:44:17;;;;;;;9.55;6.15;;;;;;;-0.67;94.06;100349.81;5022470;28;20056;-82
2022/04/01 03:46:56;;;;;;;7.60;5.30;;;;;;;-0.69;94.02;100358.81;5025232;28;20025;-82
2022/04/01 03:49:23;;;;;;;10.80;6.25;;;;;;;-0.81;94.37;100354.75;5046163;28;20086;-84
2022/04/01 03:51:51;;;;;;;5.80;4.00;;;;;;;-0.75;94.36;100365.22;5028407;28;20141;-85
2022/04/01 03:54:17;;;;;;;5.90;4.28;;;;;;;-0.79;94.56;100371.59;5046857;28;20033;-83
2022/04/01 03:57:08;;;;;;;9.68;6.53;;;;;;;-0.77;94.76;100359.06;5038021;28;20035;-83
2022/04/01 03:59:54;;;;;;;9.35;5.40;;;;;;;-0.71;94.03;100372.19;5045003;28;20032;-85
2022/04/01 04:02:49;;;;;;;8.43;4.15;;;;;;;-0.79;94.61;100371.59;5028714;28;20060;-84
2022/04/01 04:05:22;;;;;;;8.13;3.97;;;;;;;-0.76;94.49;100390.16;5028606;28;20403;-86
2022/04/01 04:07:48;;;;;;;8.63;5.05;;;;;;;-0.74;94.22;100403.50;5046616;28;20035;-87
2022/04/01 04:10:18;;;;;;;5.43;4.38;;;;;;;-0.78;94.47;100400.06;5046533;28;20037;-83
2022/04/01 04:12:57;;;;;;;6.63;4.70;;;;;;;-0.73;93.84;100389.22;5045329;28;20044;-88
2022/04/01 04:15:26;;;;;;;5.72;4.35;;;;;;;-0.72;94.00;100398.97;5041328;28;20114;-84
2022/04/01 04:17:57;;;;;;;6.30;4.53;;;;;;;-0.80;94.76;100397.41;5042801;28;20033;-83
2022/04/01 04:20:23;;;;;;;6.05;4.75;;;;;;;-0.73;94.37;100415.91;5043821;28;20045;-83
2022/04/01 04:23:00;;;;;;;8.75;5.95;;;;;;;-0.78;94.80;100408.94;5046191;28;20025;-88
2022/04/01 04:25:34;;;;;;;7.22;5.45;;;;;;;-0.78;94.89;100395.56;5028523;28;20037;-82
2022/04/01 04:28:01;;;;;;;6.32;4.63;;;;;;;-0.73;93.80;100410.59;5032908;28;20072;-84
2022/04/01 04:30:33;;;;;;;8.00;4.60;;;;;;;-0.75;94.42;100415.06;5028126;28;20024;-83
2022/04/01 04:33:23;;;;;;;6.97;5.13;;;;;;;-0.78;94.45;100408.06;5048732;28;20037;-89
2022/04/01 04:35:49;;;;;;;9.48;5.70;;;;;;;-0.77;94.58;100421.34;5045187;28;20038;-84
2022/04/01 04:38:20;;;;;;;8.68;4.85;;;;;;;-0.81;94.79;100418.84;5046803;28;20031;-84
2022/04/01 04:40:46;;;;;;;8.13;5.80;;;;;;;-0.79;94.46;100425.00;5050187;28;20017;-84
2022/04/01 04:43:18;;;;;;;7.78;5.65;;;;;;;-0.79;94.35;100423.22;5050048;28;20117;-83
2022/04/01 04:45:48;;;;;;;11.00;6.05;;;;;;;-0.72;93.83;100429.22;5030208;28;20047;-83
2022/04/01 04:48:15;;;;;;;9.23;6.07;;;;;;;-0.73;94.23;100430.16;5049557;28;20052;-84
2022/04/01 04:50:49;;;;;;;8.48;5.22;;;;;;;-0.75;93.97;100441.78;5028299;28;20056;-84
2022/04/01 04:53:19;;;;;;;8.45;4.63;;;;;;;-0.74;94.30;100448.91;5043771;28;20127;-84
2022/04/01 04:55:48;;;;;;;9.43;6.13;;;;;;;-0.74;93.79;100451.56;5044875;28;20028;-88
2022/04/01 04:58:20;;;;;;;7.78;4.93;;;;;;;-0.77;93.98;100453.41;5046371;28;20025;-88
2022/04/01 05:00:57;;;;;;;9.77;5.60;;;;;;;-0.78;93.95;100459.66;5046584;28;20100;-84
2022/04/01 05:04:02;;;;;;;9.55;5.82;;;;;;;-0.78;94.26;100493.50;5046369;28;20041;-83
2022/04/01 05:06:39;;;;;;;6.68;4.25;;;;;;;-0.75;93.66;100482.72;5048035;28;20106;-83
2022/04/01 05:10:01;;;;;;;6.03;3.85;;;;;;;-0.78;93.56;100477.50;5050200;28;20152;-83
2022/04/01 05:12:42;;;;;;;5.43;4.32;;;;;;;-0.68;92.88;100488.75;5040372;28;20397;-87
2022/04/01 05:15:29;;;;;;;8.43;4.95;;;;;;;-0.73;93.54;100498.72;5035137;28;20037;-84
2022/04/01 05:18:08;;;;;;;7.03;4.57;;;;;;;-0.73;92.90;100501.38;5044347;28;20611;-88
2022/04/01 05:20:38;;;;;;;5.72;4.18;;;;;;;-0.71;92.63;100499.53;5028690;28;20040;-85
2022/04/01 05:23:15;;;;;;;6.03;4.20;;;;;;;-0.66;92.36;100516.28;5026104;28;20036;-83
2022/04/01 05:25:44;;;;;;;7.82;5.32;;;;;;;-0.74;92.47;100505.84;5024210;28;20041;-83
2022/04/01 05:28:34;;;;;;;8.05;4.65;;;;;;;-0.75;92.36;100508.56;5039607;28;20052;-85
2022/04/01 05:31:10;;;;;;;6.35;4.65;;;;;;;-0.65;91.93;100518.06;5025487;28;20044;-84
2022/04/01 05:33:57;;;;;;;9.68;4.72;;;;;;;-0.72;92.22;100514.69;5028873;28;20219;-85
2022/04/01 05:36:23;;;;;;;8.80;5.75;;;;;;;-0.74;92.39;100513.88;5047992;28;20055;-84
2022/04/01 05:38:50;;;;;;;5.93;3.90;;;;;;;-0.74;92.49;100537.91;5046992;28;20052;-84
2022/04/01 05:41:19;;;;;;;5.38;4.07;;;;;;;-0.69;92.11;100530.63;5027707;28;20087;-85
2022/04/01 05:43:50;;;;;;;8.20;4.68;;;;;;;-0.75;91.62;100522.78;5046252;28;20419;-89
2022/04/01 05:46:24;;;;;;;10.05;4.45;;;;;;;-0.65;91.74;100553.66;5035589;28;20029;-82
2022/04/01 05:48:53;;;;;;;10.60;5.78;;;;;;;-0.72;91.41;100549.41;5032010;28;20025;-84
2022/04/01 05:51:19;;;;;;;8.65;5.15;;;;;;;-0.71;91.34;100552.94;5027891;28;20465;-85
2022/04/01 05:53:50;;;;;;;6.95;4.47;;;;;;;-0.71;91.81;100547.59;5048497;28;20033;-85
2022/04/01 05:56:15;;;;;;;6.28;5.20;;;;;;;-0.68;91.09;100569.75;5044497;28;20041;-83
2022/04/01 05:58:42;;;;;;;7.88;4.28;;;;;;;-0.70;91.09;100560.03;5026484;28;20059;-87
2022/04/01 06:01:14;;;;;;;6.63;4.70;;;;;;;-0.66;90.97;100572.38;5036926;28;20075;-83
2022/04/01 06:04:19;;;;;;;5.00;3.47;;;;;;;-0.73;91.38;100569.03;5047608;28;20048;-84
2022/04/01 06:06:47;;;;;;;6.75;4.28;;;;;;;-0.79;91.57;100571.88;5016583;28;20400;-83
2022/04/01 06:09:46;;;;;;;7.15;3.70;;;;;;;-0.72;91.21;100572.56;5030836;28;20057;-84
2022/04/01 06:13:13;;;;;;;6.25;4.20;;;;;;;-0.74;91.11;100580.63;5048963;28;20514;-88
2022/04/01 06:16:03;;;;;;;6.50;3.88;;;;;;;-0.75;91.42;100600.22;5046419;28;20097;-84
2022/04/01 06:19:24;;;;;;;9.10;4.38;;;;;;;-0.68;91.01;100595.59;5045556;28;20106;-84
2022/04/01 06:22:20;;;;;;;10.38;4.78;;;;;;;-0.65;91.13;100603.53;5030751;28;20095;-83
2022/04/01 06:25:17;;;;;;;7.78;3.80;;;;;;;-0.70;90.93;100616.13;5041598;28;20404;-85
2022/04/01 06:27:54;;;;;;;5.28;4.07;;;;;;;-0.65;90.42;100623.09;5047508;28;20404;-83
2022/04/01 06:30:22;;;;;;;5.47;3.17;;;;;;;-0.74;91.28;100615.34;5022304;28;20026;-82
2022/04/01 06:33:14;;;;;;;7.10;3.92;;;;;;;-0.74;91.04;100622.50;5048051;28;20064;-85
2022/04/01 06:35:59;;;;;;;6.25;3.58;;;;;;;-0.72;90.44;100634.00;5047433;28;20480;-84
2022/04/01 06:38:44;;;;;;;5.30;3.90;;;;;;;-0.72;90.60;100634.88;5048476;28;20025;-82
2022/04/01 06:41:17;;;;;;;5.93;4.35;;;;;;;-0.75;90.42;100650.09;5044920;28;20029;-84
2022/04/01 06:43:51;;;;;;;5.68;3.20;;;;;;;-0.76;90.65;100646.56;5031238;28;20047;-84
2022/04/01 06:46:39;;;;;;;5.43;2.90;;;;;;;-0.73;90.19;100653.63;5030578;28;20068;-84
2022/04/01 06:49:14;;;;;;;4.57;3.42;;;;;;;-0.75;90.21;100660.78;5031388;28;20328;-84
2022/04/01 06:52:11;;;;;;;4.15;3.50;;;;;;;-0.71;89.94;100657.09;5038027;28;20474;-83
2022/04/01 06:54:56;;;;;;;5.25;3.47;;;;;;;-0.73;89.92;100664.31;5042655;28;20064;-87
2022/04/01 06:57:42;;;;;;;4.63;3.33;;;;;;;-0.70;89.47;100674.88;5036606;28;20075;-86
2022/04/01 07:00:14;;;;;;;5.05;3.13;;;;;;;-0.68;89.00;100668.59;5029141;28;20057;-87
2022/04/01 07:02:44;;;;;;;6.20;3.67;;;;;;;-0.64;89.20;100677.38;5031024;28;20053;-85
2022/04/01 07:05:10;;;;;;;7.05;3.13;;;;;;;-0.69;89.68;100673.97;5042214;28;20037;-84
2022/04/01 07:07:36;;;;;;;5.60;3.65;;;;;;;-0.62;89.08;100680.88;5043857;28;20472;-84
2022/04/01 07:10:04;;;;;;;5.05;3.42;;;;;;;-0.64;88.89;100680.06;5030907;28;20083;-83
2022/04/01 07:12:32;;;;;;;5.80;3.00;;;;;;;-0.68;89.34;100679.28;5043946;28;20133;-83
2022/04/01 07:14:58;;;;;;;5.55;3.05;;;;;;;-0.69;89.54;100682.00;5028907;28;20033;-88
2022/04/01 07:17:25;;;;;;;6.18;3.45;;;;;;;-0.62;89.03;100688.91;5039826;28;20055;-84
2022/04/01 07:19:50;;;;;;;6.60;3.92;;;;;;;-0.56;88.42;100680.69;5046535;28;20023;-84
2022/04/01 07:22:16;;;;;;;3.80;3.42;;;;;;;-0.52;88.31;100687.69;5046473;28;20033;-82
2022/04/01 07:24:41;;;;;;;4.15;3.25;;;;;;;-0.62;89.38;100695.09;5047089;28;20044;-84
2022/04/01 07:27:07;;;;;;;6.10;3.63;;;;;;;-0.65;89.41;100687.19;5031345;28;20037;-83
2022/04/01 07:29:32;;;;;;;3.47;3.17;;;;;;;-0.62;89.15;100703.13;5022135;28;20041;-83
2022/04/01 07:34:43;;;;;;;4.90;3.40;;;;;;;-0.65;89.83;100721.94;5046325;28;20036;-81
2022/04/01 07:37:10;;;;;;;3.40;2.95;;;;;;;-0.56;88.66;100718.09;5042590;28;20045;-83
2022/04/01 07:39:35;;;;;;;6.15;3.17;;;;;;;-0.60;89.38;100714.66;5047097;28;20120;-84
2022/04/01 07:42:01;;;;;;;4.70;2.95;;;;;;;-0.58;88.97;100711.94;5029058;28;20136;-89
2022/04/01 07:44:27;;;;;;;6.78;3.88;;;;;;;-0.49;87.94;100721.47;5028733;28;20063;-82
2022/04/01 07:46:53;;;;;;;8.02;3.92;;;;;;;-0.46;88.04;100730.28;5035125;28;20029;-83
2022/04/01 07:49:19;;;;;;;5.25;3.38;;;;;;;-0.53;88.24;100729.56;5041830;28;20033;-84
2022/04/01 07:51:45;;;;;;;5.75;3.42;;;;;;;-0.56;88.22;100728.78;5046288;28;20048;-86
2022/04/01 07:54:11;;;;;;;4.53;3.15;;;;;;;-0.58;88.86;100728.84;5048387;28;20033;-89
2022/04/01 07:56:40;;;;;;;4.03;2.83;;;;;;;-0.57;88.75;100735.06;5047413;28;20040;-83
2022/04/01 07:59:06;;;;;;;7.18;3.92;;;;;;;-0.55;88.88;100733.22;5040761;28;20104;-85
2022/04/01 08:01:31;;;;;;;5.10;3.55;;;;;;;-0.58;89.02;100733.31;5046432;28;20120;-86
2022/04/01 08:03:56;;;;;;;4.97;3.33;;;;;;;-0.52;88.53;100735.78;5030365;28;20034;-83
2022/04/01 08:06:22;;;;;;;12.68;3.85;;;;;;;-0.52;88.77;100743.81;5039029;28;20033;-85
2022/04/01 08:08:47;;;;;;;5.10;3.00;;;;;;;-0.49;88.25;100746.41;5032983;28;20080;-90
2022/04/01 08:11:13;;;;;;;5.18;3.95;;;;;;;-0.56;89.56;100745.72;5034066;28;20033;-88
2022/04/01 08:13:38;;;;;;;5.20;2.95;;;;;;;-0.54;88.76;100751.00;5050573;28;20048;-85
2022/04/01 08:16:04;;;;;;;3.55;2.55;;;;;;;-0.49;88.50;100761.56;5048504;28;20095;-83
2022/04/01 08:18:29;;;;;;;5.18;2.55;;;;;;;-0.42;87.85;100756.00;5033541;28;20425;-85
2022/04/01 08:20:55;;;;;;;9.80;2.97;;;;;;;-0.44;88.46;100768.53;5045643;28;20052;-82
2022/04/01 08:23:21;;;;;;;4.28;2.80;;;;;;;-0.36;87.50;100774.53;5050269;28;20033;-82
2022/04/01 08:25:47;;;;;;;5.55;3.10;;;;;;;-0.43;88.47;100769.38;5050515;28;20043;-85
2022/04/01 08:28:12;;;;;;;7.63;3.75;;;;;;;-0.44;88.67;100771.19;5033695;28;20024;-84
2022/04/01 08:30:40;;;;;;;5.55;3.15;;;;;;;-0.39;88.12;100781.75;5048337;28;20128;-84
2022/04/01 08:33:05;;;;;;;7.57;3.13;;;;;;;-0.35;87.87;100794.09;5051759;28;20055;-83
2022/04/01 08:35:33;;;;;;;3.65;2.65;;;;;;;-0.35;87.40;100786.97;5047542;28;20032;-84
2022/04/01 08:37:58;;;;;;;4.80;2.78;;;;;;;-0.32;86.18;100794.03;5033298;28;20025;-83
2022/04/01 08:40:24;;;;;;;2.72;1.88;;;;;;;-0.37;86.81;100795.97;5050515;28;20025;-84
2022/04/01 08:42:50;;;;;;;4.68;3.28;;;;;;;-0.39;87.14;100805.81;5050261;28;20045;-83
2022/04/01 08:45:18;;;;;;;3.50;2.72;;;;;;;-0.30;86.60;100813.56;5033408;28;20025;-82
2022/04/01 08:47:44;;;;;;;7.05;2.97;;;;;;;-0.26;85.93;100809.88;5040129;28;20435;-83
2022/04/01 08:50:10;;;;;;;5.97;2.65;;;;;;;-0.24;85.70;100816.06;5049172;28;20071;-85
2022/04/01 08:52:36;;;;;;;3.67;2.50;;;;;;;-0.23;86.04;100822.28;5049479;28;20056;-82
2022/04/01 08:55:07;;;;;;;3.75;2.20;;;;;;;-0.25;86.12;100827.66;5049922;28;20106;-83
2022/04/01 08:57:37;;;;;;;5.07;2.58;;;;;;;-0.17;86.08;100828.34;5049626;28;20032;-86
2022/04/01 09:00:23;;;;;;;5.60;2.63;;;;;;;-0.21;86.25;100845.38;5043566;28;20037;-84
2022/04/01 09:03:04;;;;;;;6.47;2.75;;;;;;;-0.18;86.51;100828.38;5029699;28;20102;-82
2022/04/01 09:05:29;;;;;;;3.83;2.35;;;;;;;-0.18;87.11;100839.09;5032987;28;20052;-83
2022/04/01 09:08:06;;;;;;;3.97;2.28;;;;;;;-0.10;86.29;100843.25;5031686;28;20396;-81
2022/04/01 09:10:49;;;;;;;7.53;2.55;;;;;;;-0.17;86.58;100843.50;5047669;28;20033;-83
2022/04/01 09:13:15;;;;;;;8.90;2.67;;;;;;;-0.03;85.46;100850.22;5043987;28;20036;-82
2022/04/01 09:15:42;;;;;;;4.00;2.13;;;;;;;-0.09;86.55;100852.19;5029513;28;20040;-82
2022/04/01 09:18:08;;;;;;;4.45;2.33;;;;;;;-0.04;86.76;100848.47;5033374;28;20476;-88
2022/04/01 09:20:48;;;;;;;3.72;2.63;;;;;;;0.08;86.28;100863.25;5029559;28;20107;-84
2022/04/01 09:23:22;;;;;;;8.23;2.60;;;;;;;0.04;86.54;100856.25;5030719;28;20033;-88
2022/04/01 09:25:49;;;;;;;4.80;2.30;;;;;;;0.09;86.56;100856.97;5043263;28;20029;-83
2022/04/01 09:28:29;;;;;;;5.07;2.67;;;;;;;0.11;86.01;100851.59;5036328;28;20037;-87
2022/04/01 09:31:03;;;;;;;5.65;2.53;;;;;;;0.16;85.69;100855.03;5043571;28;20033;-82
2022/04/01 09:33:44;;;;;;;2.97;2.45;;;;;;;0.25;85.58;100877.03;5030530;28;20442;-86
2022/04/01 09:36:17;;;;;;;5.55;2.47;;;;;;;0.28;85.88;100867.13;5032993;28;20485;-84
2022/04/01 09:39:08;;;;;;;2.75;1.80;;;;;;;0.33;85.04;100867.91;5032344;28;20059;-88
2022/04/01 09:41:58;;;;;;;1.98;1.73;;;;;;;0.37;84.77;100867.72;5025868;28;20049;-84
2022/04/01 09:44:29;;;;;;;2.47;1.60;;;;;;;0.39;83.26;100871.25;5047523;28;20124;-82
2022/04/01 09:47:06;;;;;;;2.75;1.70;;;;;;;0.42;84.84;100878.31;5043332;28;20041;-88
2022/04/01 09:49:36;;;;;;;3.00;1.60;;;;;;;0.41;84.09;100876.56;5037312;28;20322;-84
2022/04/01 09:52:12;;;;;;;4.63;1.60;;;;;;;0.35;83.51;100871.41;5042536;28;20079;-83
2022/04/01 09:54:52;;;;;;;5.63;1.40;;;;;;;0.37;84.30;100875.75;5040462;28;20453;-85
2022/04/01 09:57:23;;;;;;;3.03;1.98;;;;;;;0.41;84.93;100873.88;5031403;28;20037;-83
2022/04/01 09:59:50;;;;;;;5.60;2.08;;;;;;;0.37;85.20;100880.25;5037415;28;20029;-85
2022/04/01 10:02:16;;;;;;;2.72;1.70;;;;;;;0.40;85.60;100880.16;5030351;28;20463;-86
2022/04/01 10:04:41;;;;;;;4.95;1.95;;;;;;;0.38;85.51;100863.28;5047020;28;20043;-87
2022/04/01 10:07:08;;;;;;;2.90;1.60;;;;;;;0.38;85.01;100882.03;5031311;28;20492;-85
2022/04/01 10:09:34;;;;;;;2.72;2.25;;;;;;;0.43;83.63;100880.09;5031543;28;20044;-82
2022/04/01 10:12:03;;;;;;;4.47;1.73;;;;;;;0.41;84.37;100873.88;5048476;28;20055;-88
2022/04/01 10:14:31;;;;;;;1.95;1.48;;;;;;;0.36;85.03;100871.34;5047031;28;20112;-87
2022/04/01 10:17:00;;;;;;;2.67;1.88;;;;;;;0.43;84.39;100880.94;5030423;28;20404;-84
2022/04/01 10:19:29;;;;;;;3.70;2.30;;;;;;;0.46;84.79;100877.28;5047521;28;20123;-87
2022/04/01 10:21:55;;;;;;;5.22;2.10;;;;;;;0.46;86.00;100875.47;5047436;28;20040;-85
2022/04/01 10:24:21;;;;;;;2.65;1.63;;;;;;;0.53;85.64;100878.00;5047027;28;20068;-83
2022/04/01 10:27:23;;;;;;;2.00;1.70;;;;;;;0.65;84.44;100877.59;5048080;28;20102;-85
2022/04/01 10:29:49;;;;;;;4.95;1.63;;;;;;;0.59;83.84;100881.34;5044595;28;20039;-88
2022/04/01 10:32:28;;;;;;;5.32;1.92;;;;;;;0.65;84.40;100888.31;5023694;28;20037;-87
2022/04/01 10:34:56;;;;;;;3.78;1.95;;;;;;;0.67;84.32;100879.31;5014381;28;20037;-82
2022/04/01 10:37:25;;;;;;;4.07;2.05;;;;;;;0.73;84.20;100880.91;5043997;28;20052;-87
2022/04/01 10:40:15;;;;;;;2.92;2.20;;;;;;;0.80;84.48;100900.38;5048007;28;20032;-86
2022/04/01 10:42:42;;;;;;;3.47;2.60;;;;;;;0.75;83.50;100893.34;5025545;28;20045;-84
2022/04/01 10:45:17;;;;;;;3.70;1.92;;;;;;;0.79;83.25;100893.22;5035308;28;20069;-82
2022/04/01 10:53:37;;;;;;;4.25;2.60;;;;;;;0.74;82.61;100893.38;5047655;28;20079;-83
2022/04/01 10:56:23;;;;;;;4.30;2.17;;;;;;;0.81;82.44;100903.00;5034053;28;20523;-86
2022/04/01 10:59:22;;;;;;;2.85;2.03;;;;;;;0.82;81.81;100906.53;5045930;28;20033;-83
2022/04/01 11:01:53;;;;;;;3.22;2.50;;;;;;;0.91;81.73;100914.28;5043257;28;20468;-83
2022/04/01 11:04:20;;;;;;;4.35;2.90;;;;;;;0.90;80.58;100913.41;5046401;28;20480;-91
2022/04/01 11:06:53;;;;;;;3.30;2.40;;;;;;;0.91;79.69;100916.97;5046422;28;20025;-83
2022/04/01 11:09:45;;;;;;;4.57;3.10;;;;;;;0.98;79.60;100914.06;5048420;28;20044;-82
2022/04/01 11:12:18;;;;;;;6.10;3.10;;;;;;;0.94;79.51;100917.75;5031040;28;20492;-87
2022/04/01 11:15:19;;;;;;;3.88;2.65;;;;;;;0.95;79.89;100918.63;5045772;28;20096;-83
2022/04/01 11:17:44;;;;;;;6.70;3.05;;;;;;;0.94;80.28;100923.09;5025766;28;20402;-83
2022/04/01 11:20:18;;;;;;;5.53;3.25;;;;;;;0.95;81.59;100922.16;5030209;28;20560;-85
2022/04/01 11:23:01;;;;;;;4.22;2.67;;;;;;;1.05;80.45;100928.13;5045929;28;20040;-90
2022/04/01 11:25:32;;;;;;;4.70;2.83;;;;;;;0.99;79.61;100922.97;5047028;28;20033;-85
2022/04/01 11:28:02;;;;;;;5.35;3.40;;;;;;;1.06;79.45;100932.53;5046081;28;20034;-85
2022/04/01 11:30:30;;;;;;;7.90;3.42;;;;;;;0.99;80.68;100928.31;5025508;28;20025;-84
2022/04/01 11:33:02;;;;;;;7.18;3.58;;;;;;;0.93;80.86;100931.16;5040916;28;20419;-82
2022/04/01 11:35:35;;;;;;;5.82;3.45;;;;;;;0.99;80.58;100925.63;5046455;28;20086;-85
2022/04/01 11:38:01;;;;;;;6.47;3.58;;;;;;;1.00;81.58;100935.41;5041325;28;20043;-83
2022/04/01 11:40:29;;;;;;;6.88;3.53;;;;;;;1.01;81.24;100938.03;5048465;28;20037;-82
2022/04/01 11:43:03;;;;;;;5.57;3.38;;;;;;;1.05;80.62;100940.63;5030265;28;20059;-83
2022/04/01 11:45:54;;;;;;;4.10;3.10;;;;;;;1.06;80.75;100937.03;5025352;28;20044;-86
2022/04/01 11:48:28;;;;;;;5.47;3.92;;;;;;;1.07;80.50;100931.59;5046072;28;20040;-88
2022/04/01 11:50:57;;;;;;;6.05;3.50;;;;;;;1.05;80.80;100935.28;5029331;28;20064;-89
2022/04/01 11:53:32;;;;;;;6.38;4.50;;;;;;;1.06;80.57;100937.03;5030131;28;20416;-83
2022/04/01 11:56:02;;;;;;;6.15;3.90;;;;;;;1.01;80.07;100938.03;5026660;28;20029;-83
2022/04/01 11:58:34;;;;;;;5.05;3.33;;;;;;;1.01;80.13;100937.16;5039729;28;20451;-87
2022/04/01 12:00:59;;;;;;;8.57;4.47;;;;;;;1.02;80.95;100941.59;5024460;28;20484;-86